Saint Médard d'Aunis (17)                     Juin 2022                                  
  Température (°C) - Abri Young à ventilation mécanique 43502 (moy/5min)  Davis 7714 (moy/1min) Humidité Vent Davis (km/h) PeetBros Instromet Précipitations (mm) Pression (hPa) Divers  
Date Maxi USCRN /5min Mini  USCRN /5min Moy de 1440 relevés Moy (tx+tn)/2 Index chaleur moyen Index chaleur maxi Froid dû au vent moy/5min  Froid dû au vent mini/5min   Amplitude (tx-tn) Tx OMM/1min Tn OMM/1min Moy de 1440 relevés Moy (tx+tn)/2 Relative maxi Relative mini Relative moy de 1440 relevés Relative moy (hx+hn)/2 Point de rosée maxi Point de rosée mini Point de rosée moy 1440 relevés Vent moy maxi (10min) Vent  moyen (24h) Direction dominante Rafales (km/h) maxi Direction rafale maxi Rafales moy (24h) Rafales (km/h)   maxi Rafales (km/h)   maxi Total du jour (mm) Durée en heures et dixièmes Intensité maxi sur 1 min (mm/h) Maxi Mini Moy de 1440 relevés Moy (px+pn)/2 Variation Epaisseur neige (cm) Ensoleillement (h:min) Remarques diverses    
01/06/2022 25,9 10,2 18,26 18,05 18,31 26,1 18,15 9,8 15,8 26,0 10,5 18,38 18,25 94% 49% 71,3% 71,5% 15,3 5,5 12,53 15,94 6,68 NNE 24,1 NNE 9,31 25,5 23 5,2 1,5 12,0 1016,4 1012,4 1014,54 1014,40 4,0   7:48 Ciel 8/8 à 4/8 le matin, entre 3/8 et 6/8 l'après-midi  
02/06/2022 28,1 14,2 21,47 21,15 21,79 29,1 21,35 14,1 14,1 28,6 14,2 21,67 21,40 85% 52% 68,2% 68,5% 18,5 10,6 15,14 16,58 8,51 NW 25,7 WSW 11,97 26,1 25 0,0 0,0 0,0 1014,6 1012,1 1013,26 1013,35 2,5   14:16 Ciel 8/8 à 0/8  
03/06/2022 27,1 16,1 20,43 21,59 20,98 28,0 20,21 14,0 11,0 27,4 16,1 20,56 21,75 95% 52% 80,6% 73,5% 19,6 14,5 16,71 23,80 7,95 WNW 46,7 WSW 10,79 46,6 46 6,4 1,8 12,0 1013,8 1010,5 1012,55 1012,15 3,3   8:17 Ciel entre 4/8 et 8/8 le matin, orage, pluie, entre 2/8 et 6/8 l'après-midi  
04/06/2022 25,4 15,3 19,28 20,34 19,73 26,1 19,01 15,1 10,1 25,6 15,4 19,33 20,50 97% 61% 83,3% 79,0% 19,0 14,4 16,17 22,36 8,83 WNW 35,4 WNW 11,77 35,8 35 0,4 0,2 12,0 1017,2 1012,8 1014,82 1015,00 4,4   2:38 Tonnerre et faible pluie le matin, ciel entre 6/8 et 7/8 le matin  
05/06/2022 21,8 12,6 17,36 17,20 17,52 21,9 16,42 12,2 9,3 22,1 12,4 17,40 17,25 96% 63% 81,9% 79,5% 16,2 11,5 14,04 24,28 13,35 W 33,8 WSW 17,18 35,7 36 0,0 0,0 0,0 1021,2 1016,1 1019,36 1018,65 5,1   7:11 Ciel entre 6/8 et 7/8  
06/06/2022 19,9 13,0 16,54 16,45 16,80 20,2 16,40 13,0 6,8 20,1 12,7 16,55 16,40 96% 70% 88,7% 83,0% 16,4 12,2 14,58 15,30 6,82 SW 25,7 S 9,70 23,8 22 3,8 1,3 12,0 1020,6 1018,5 1019,29 1019,55 2,1   0:16 Ciel 2/8 à 8/8, pluie l'après-midi  
07/06/2022 22,3 14,1 18,15 18,20 18,29 22,7 16,90 12,7 8,4 22,2 14,0 18,20 18,10 95% 58% 79,9% 76,5% 16,3 12,6 14,40 28,51 16,07 WSW 43,5 WSW 21,37 45,9 48 0,2 0,1 12,0 1019,6 1013,8 1018,07 1016,70 5,8   8:28 Ciel entre 6/8 et 8/8 le matin, entre 4/8 et 6/8 ensuite  
08/06/2022 21,4 13,9 17,46 17,63 17,69 21,3 15,33 12,3 7,4 21,3 13,9 17,43 17,60 97% 63% 84,8% 80,0% 18,2 12,3 14,69 32,04 20,84 WNW 49,9 WNW 27,59 50,8 50 13,0 3,6 12,0 1019,2 1011,7 1014,71 1015,45 7,5   6:29 Ciel 8/8 à 4 /8 le matin, pluie, entre 4/8 et 6/8 l'après-midi, 2/8 le soir  
09/06/2022 22,1 9,9 17,18 16,01 17,22 22,4 16,16 9,9 12,4 22,5 9,9 17,23 16,20 95% 52% 79,1% 73,5% 15,7 9,1 13,25 23,14 13,46 W 38,6 W 17,29 39,3 38 0,0 0,0 0,0 1024,1 1018,8 1021,84 1021,45 5,3   11:46 Ciel 6/8 à 4/8 le matin, 4/8 à 2/8 l'après-midi  
10/06/2022 25,0 8,5 17,40 16,74 17,70 25,6 17,12 8,6 16,6 25,2 8,2 17,47 16,70 97% 60% 81,3% 78,5% 17,1 8,0 13,84 17,70 7,72 WNW 27,4 WNW 10,51 27,2 28 0,0 0,0 0,0 1024,7 1022,2 1023,42 1023,45 2,5   10:45 Ciel entre 2/8 et 8/8 le matin, 6/8 à 0/8 l'après-midi  
11/06/2022 28,4 12,8 21,11 20,61 21,61 29,8 20,75 12,1 15,7 28,4 12,9 21,18 20,65 96% 52% 74,4% 74,0% 19,1 12,1 15,96 22,18 11,02 N 30,6 NW 15,10 31,5 31 0,0 0,0 0,0 1023,6 1021,0 1022,45 1022,30 2,6   13:25 Ciel 0/8 le matin, entre 0/8 et 6/8 l'après-midi  
12/06/2022 27,9 15,8 21,67 21,84 21,89 28,6 20,66 14,3 12,2 27,9 15,8 21,68 21,85 86% 51% 66,3% 68,5% 17,2 12,2 14,82 28,17 16,70 NNE 43,5 NE 21,87 44,9 42 0,0 0,0 0,0 1023,2 1020,3 1021,87 1021,75 2,9   13:18 Ciel 2/8 à 6/8 le matin, entre 2/8 et 6/8 l'après-midi  
13/06/2022 28,7 14,1 20,90 21,41 20,37 28,1 19,85 11,4 14,7 28,9 14,1 20,94 21,50 79% 30% 53,3% 54,5% 12,5 8,3 10,20 22,35 15,30 NE 35,4 ENE 20,52 35,7 34 0,0 0,0 0,0 1024,1 1018,8 1021,55 1021,45 5,3   14:52 Ciel 0/8 à 1/8  
14/06/2022 34,5 13,6 24,57 24,04 24,35 34,5 24,16 11,6 21,0 34,7 13,6 24,65 24,15 77% 29% 49,8% 53,0% 15,1 8,6 12,42 21,70 11,56 NE 33,8 ENE 16,11 35,1 35 0,0 0,0 0,0 1018,9 1011,4 1014,49 1015,15 7,5   14:45 Ciel entre 0/8 et 3/8  
15/06/2022 31,1 16,0 23,99 23,54 24,30 32,9 23,81 16,1 15,1 31,4 15,7 23,98 23,55 85% 38% 58,1% 61,5% 19,5 11,7 14,76 22,02 9,89 W 30,6 W 12,96 32,7 33 0,0 0,0 0,0 1018,3 1011,7 1015,21 1015,00 6,6   13:38 Ciel 0/8 à 1/8, 6/8 en fin d'après-midi  
16/06/2022 35,8 16,9 26,16 26,34 26,87 37,1 26,12 16,9 19,0 36,6 16,6 26,25 26,60 88% 31% 59,2% 59,5% 19,0 14,6 16,57 20,42 10,00 NNW 32,2 ESE 13,90 * 36 0,0 0,0 0,0 1020,4 1018,0 1019,05 1019,20 2,4   11:21 Ciel 8/8 à 4/8 le matin, 2/8 ensuite  
17/06/2022 39,3 16,2 28,63 27,74 29,55 41,2 28,71 16,2 23,3 39,6 16,1 28,63 27,85 84% 26% 51,9% 55,0% 18,6 13,4 16,36 18,34 8,28 ENE 30,6 ENE 11,55 32,9 32 0,0 0,0 0,0 1020,8 1017,4 1019,09 1019,10 3,4   14:54 Ciel entre 0/8  et 1/8  
18/06/2022 40,8 17,4 30,04 29,08 31,58 44,1 29,79 17,4 23,7 40,8 17,5 29,96 29,15 84% 26% 50,6% 55,0% 20,4 13,0 17,54 34,12 13,48 ENE 66,0 S 18,61 68,8 69 0,8 0,3 12,0 1017,8 1005,6 1011,06 1011,70 12,2   13:36 Ciel 0/8 le matin à 6/8 en fin d'après-midi, puis 8/8 avec pluie et orage  
19/06/2022 26,8 16,7 22,26 21,73 23,09 27,8 21,58 16,7 10,0 26,8 16,7 22,33 21,75 91% 63% 78,0% 77,0% 20,9 15,0 18,14 25,90 13,71 W 43,5 SW 18,95 43,0 46 0,0 0,0 0,0 1011,1 1004,8 1007,53 1007,95 6,3   6:21 Ciel 8/8 à 4/8 le matin, orage, tr de précip., 4/8 à 6/8 l'après-midi, 0/8 le soir  
20/06/2022 29,7 15,2 22,07 22,45 22,72 30,9 21,96 15,2 14,6 30,2 15,5 22,24 22,85 95% 50% 75,2% 72,5% 19,4 14,3 16,97 24,93 7,27 NNE 51,5 WSW 10,28 53,4 55 2,6 1,0 12,0 1012,9 1009,1 1011,23 1011,00 3,8   4:41 Ciel entre 6/8 et 8/8, pluie et orage le soir  
21/06/2022 27,0 16,8 20,96 21,89 21,85 28,7 20,64 16,6 10,3 27,4 16,6 21,10 22,00 97% 66% 86,2% 81,5% 21,1 15,7 18,41 24,11 8,54 WSW 37,0 WSW 11,82 36,8 37 4,4 0,7 48,0 1011,1 1008,7 1010,12 1009,90 2,4   6:44 Ciel entre 2/8 et 8/8, pluie et orage le soir  
22/06/2022 24,8 13,9 19,20 19,35 19,77 25,6 18,54 13,8 10,9 25,0 13,7 19,25 19,35 97% 63% 86,7% 80,0% 20,1 13,3 16,74 21,38 12,47 W 32,2 WSW 16,24 35,1 35 12,8 3,9 12,0 1012,6 1007,4 1010,64 1010,00 5,2   6:08 Ciel 8/8 à 6/8 le matin, pluie et orage, 6/8 à 1/8 l'après-midi  
23/06/2022 24,0 11,4 18,29 17,70 18,64 24,6 18,10 11,4 12,7 24,2 11,4 18,37 17,80 98% 60% 83,2% 79,0% 18,2 10,9 15,12 20,90 6,32 W 29,0 WSW 8,61 28,2 27 0,2 0,1 12,0 1012,6 1010,3 1011,59 1011,45 2,3   9:10 Brume, ciel 0/8 à 4/8 le matin, entre 4/8 et 8/8 l'après-midi, tonnerre, pluie  
24/06/2022 23,9 14,9 18,50 19,39 18,87 24,4 17,10 13,6 8,9 23,8 14,9 18,49 19,35 97% 63% 84,7% 80,0% 17,4 14,3 15,72 33,97 16,92 WSW 51,5 WSW 23,40 51,7 51 5,4 1,0 36,0 1012,6 1010,4 1011,67 1011,50 2,2   4:11 Ciel entre 6/8 et 8/8, pluie le soir  
25/06/2022 19,6 13,0 15,73 16,27 15,93 20,2 15,38 11,8 6,6 19,6 13,0 15,72 16,30 98% 75% 91,6% 86,5% 16,7 12,2 14,31 18,18 8,41 S 33,8 SSW 11,92 35,7 30 18,4 5,2 12,0 1014,8 1010,8 1012,78 1012,80 4,0   1:36 Ciel 8/8, pluie, 6/8 en fin de journée  
26/06/2022 21,8 10,1 16,54 15,95 16,53 21,4 16,05 9,5 11,7 21,6 10,1 16,65 15,85 98% 57% 78,6% 77,5% 16,0 9,7 12,50 22,66 8,93 WNW 30,6 WNW 11,77 30,9 30 0,0 0,0 0,0 1017,5 1014,4 1015,29 1015,95 3,1   4:27 Ciel 0/8 à 7/8 le matin, entre 4/8 et 8/8 l'après-midi  
27/06/2022 21,6 8,9 15,88 15,23 15,83 21,4 15,03 8,3 12,8 21,6 8,6 15,81 15,10 97% 56% 76,8% 76,5% 15,6 8,1 11,45 26,40 11,27 WNW 45,1 WSW 14,87 44,4 45 0,0 0,0 0,0 1023,7 1017,2 1020,93 1020,45 6,5   12:43 Ciel entre 2/8 et 6/8 le matin, 2/8 à 1/8 ensuite  
28/06/2022 22,5 7,2 15,61 14,87 15,52 22,1 15,28 7,3 15,2 22,8 6,9 15,62 14,85 97% 49% 76,7% 73,0% 14,3 6,7 11,03 20,90 6,99 WSW 32,2 W 9,51 33,2 33 0,0 0,0 0,0 1023,4 1017,9 1020,47 1020,65 5,5   14:28 Ciel 2/8 à 1/8  
                                                                                 
                                                                                 
                                                                                 
  Température (°C) - Abri Young à ventilation mécanique 43502 (moy/5min)  Davis 7714 (moy/1min) Humidité Vent Davis (km/h) PeetBros Instromet Précipitations (mm) Pression (hPa) Divers  
PT1000 Maxi USCRN /5min Mini  USCRN /5min Moy de 1440 relevés Moy (tx+tn)/2 Index chaleur moyen Index chaleur maxi Froid dû au vent moy/5min  Froid dû au vent mini/5min   Amplitude (tx-tn) Tx OMM/1min Tn OMM/1min Moy de 1440 relevés Moy (tx+tn)/2 Relative maxi Relative mini Relative moy de 1440 relevés Relative moy (hx+hn)/2 Point de rosée maxi Point de rosée mini Point de rosée moy 1440 relevés Vent moy maxi (10min) Vent  moyen (24h) Direction dominante Rafales (km/h) maxi Direction rafale maxi Rafales moy (24h) Rafales (km/h)   maxi Rafales (km/h)   maxi Total du jour (mm) Durée en heures et dixièmes Intensité maxi sur 1 min (mm/h) Maxi Mini Moy de 1440 relevés Moy (px+pn)/2 Variation Epaisseur neige (cm) Ensoleillement (h:min) Remarques diverses  
Maxi 40,8 17,4 30,04 29,08 31,58 44,1 29,79 17,4 23,7 40,8 17,5 29,96 29,15 98% 75% 91,6% 86,5% 21,1 15,7 18,41 34,12 20,84 W 66,0 S 27,59 68,8 69 18,4 5,2 48,0 1024,7 1022,2 1023,42 1023,45 12,2 0,0 14:54    
Mini 19,6 7,2 15,61 14,87 15,52 20,2 15,03 7,3 6,6 19,6 6,9 15,62 14,85 77% 26% 49,8% 53,0% 12,5 5,5 10,20 15,30 6,32   24,1   8,61 23,8 22       1011,1 1004,8 1007,53 1007,95 2,1        
Moy 26,69 13,53 20,20 20,10 20,55 27,39 19,66 12,93 13,23 26,87 13,46 20,25 20,17 92,5% 52,3% 74,3% 72,4% 17,62 11,60 14,80 23,15 10,97   37,14   14,84 38,17 37,6       1018,24 1013,72 1016,03 1015,98 4,53        
Total                                                         73,6 20,6             0,0 258:12:00    
   
Observations    
Jours Rafales >= 36,0 km/h Rafales >= 57,6 km/h Rafales >= 75,6 km/h Rafales >= 100,8 km/h Précipi. >= 0,1 mm Précipi. >= 1,0 mm Précipi. >= 5,0 mm Précipi. >= 10,0 mm Tx <= 0 Tx <= -5 Tx <= -10 Tx >= 20 Tx >= 25 Tx >= 30 Tx >= 35 Tx >= 40 Tn <= 0 Tn <= -5 Tn <= -10 Tn <= -15 Tn <= -20 T moy <= 0 T moy <=     -5 T moy <=     -10 T moy >= 20 T moy >= 25 T moy >= 30 Grêle Grésil Brouillard Brume Orage Neige        
01/06/2022 0 0 0 0 1 1 1 0 0 0 0 1 1 0 0 0 0 0 0 0 0 0 0 0 0 0 0 0 0 0 0 0 0    
02/06/2022 0 0 0 0 0 0 0 0 0 0 0 1 1 0 0 0 0 0 0 0 0 0 0 0 0 0 0 0 0 0 0 0 0    
03/06/2022 1 0 0 0 1 1 1 0 0 0 0 1 1 0 0 0 0 0 0 0 0 0 0 0 0 0 0 0 0 0 0 1 0    
04/06/2022 0 0 0 0 1 0 0 0 0 0 0 1 1 0 0 0 0 0 0 0 0 0 0 0 0 0 0 0 0 0 0 1 0    
05/06/2022 0 0 0 0 0 0 0 0 0 0 0 1 0 0 0 0 0 0 0 0 0 0 0 0 0 0 0 0 0 0 0 0 0    
06/06/2022 0 0 0 0 1 1 0 0 0 0 0 0 0 0 0 0 0 0 0 0 0 0 0 0 0 0 0 0 0 0 0 0 0    
07/06/2022 1 0 0 0 1 0 0 0 0 0 0 1 0 0 0 0 0 0 0 0 0 0 0 0 0 0 0 0 0 0 0 0 0    
08/06/2022 1 0 0 0 1 1 1 1 0 0 0 1 0 0 0 0 0 0 0 0 0 0 0 0 0 0 0 0 0 0 0 0 0    
09/06/2022 1 0 0 0 0 0 0 0 0 0 0 1 0 0 0 0 0 0 0 0 0 0 0 0 0 0 0 0 0 0 0 0 0    
10/06/2022 0 0 0 0 0 0 0 0 0 0 0 1 1 0 0 0 0 0 0 0 0 0 0 0 0 0 0 0 0 0 0 0 0    
11/06/2022 0 0 0 0 0 0 0 0 0 0 0 1 1 0 0 0 0 0 0 0 0 0 0 0 0 0 0 0 0 0 0 0 0    
12/06/2022 1 0 0 0 0 0 0 0 0 0 0 1 1 0 0 0 0 0 0 0 0 0 0 0 0 0 0 0 0 0 0 0 0    
13/06/2022 0 0 0 0 0 0 0 0 0 0 0 1 1 0 0 0 0 0 0 0 0 0 0 0 0 0 0 0 0 0 0 0 0    
14/06/2022 0 0 0 0 0 0 0 0 0 0 0 1 1 1 0 0 0 0 0 0 0 0 0 0 0 0 0 0 0 0 0 0 0    
15/06/2022 0 0 0 0 0 0 0 0 0 0 0 1 1 1 0 0 0 0 0 0 0 0 0 0 0 0 0 0 0 0 0 0 0    
16/06/2022 0 0 0 0 0 0 0 0 0 0 0 1 1 1 1 0 0 0 0 0 0 0 0 0 0 0 0 0 0 0 0 0 0    
17/06/2022 0 0 0 0 0 0 0 0 0 0 0 1 1 1 1 0 0 0 0 0 0 0 0 0 0 0 0 0 0 0 0 0 0    
18/06/2022 1 1 0 0 1 0 0 0 0 0 0 1 1 1 1 1 0 0 0 0 0 0 0 0 0 0 0 0 0 0 0 1 0    
19/06/2022 1 0 0 0 0 0 0 0 0 0 0 1 1 0 0 0 0 0 0 0 0 0 0 0 0 0 0 0 0 0 0 1 0    
20/06/2022 1 0 0 0 1 1 0 0 0 0 0 1 1 0 0 0 0 0 0 0 0 0 0 0 0 0 0 0 0 0 0 1 0    
21/06/2022 1 0 0 0 1 1 0 0 0 0 0 1 1 0 0 0 0 0 0 0 0 0 0 0 0 0 0 0 0 0 0 1 0    
22/06/2022 0 0 0 0 1 1 1 1 0 0 0 1 0 0 0 0 0 0 0 0 0 0 0 0 0 0 0 0 0 0 0 1 0    
23/06/2022 0 0 0 0 1 0 0 0 0 0 0 1 0 0 0 0 0 0 0 0 0 0 0 0 0 0 0 0 0 0 1 1 0    
24/06/2022 1 0 0 0 1 1 1 0 0 0 0 1 0 0 0 0 0 0 0 0 0 0 0 0 0 0 0 0 0 0 0 0 0    
25/06/2022 0 0 0 0 1 1 1 1 0 0 0 0 0 0 0 0 0 0 0 0 0 0 0 0 0 0 0 0 0 0 0 0 0    
26/06/2022 0 0 0 0 0 0 0 0 0 0 0 1 0 0 0 0 0 0 0 0 0 0 0 0 0 0 0 0 0 0 0 0 0    
27/06/2022 1 0 0 0 0 0 0 0 0 0 0 1 0 0 0 0 0 0 0 0 0 0 0 0 0 0 0 0 0 0 0 0 0    
28/06/2022 0 0 0 0 0 0 0 0 0 0 0 1 0 0 0 0 0 0 0 0 0 0 0 0 0 0 0 0 0 0 0 0 0    
                                                                           
                                                                       
                                                                       
   
  Rafales >= 36,0 km/h Rafales >= 57,6 km/h Rafales >= 75,6 km/h Rafales >= 100,8 km/h Précipi. >= 0,1 mm Précipi. >= 1,0 mm Précipi. >= 5,0 mm Précipi. >= 10,0 mm Tx <=0 Tx <= -5 Tx <= -10 Tx >= 20 Tx >= 25 Tx >= 30 Tx >= 35 Tx >= 40 Tn <= 0 Tn <= -5 Tn <= -10 Tn <= -15 Tn <= -20 T moy <= 0 T moy <=  -5 T moy <=  -10 T moy >= 20 T moy >= 25 T moy >= 30 Grêle Grésil Brouillard Brume Orage Neige        
Total 11 1 0 0 13 9 6 3 0 0 0 26 16 5 3 1 0 0 0 0 0 0 0 0 0 0 0 0 0 0 1 8 0